createdAt,value
2019-05-09T00:00:33.628Z,13.97
2019-05-09T00:03:03.478Z,14.00
2019-05-09T00:05:33.512Z,14.63
2019-05-09T00:08:03.461Z,14.53
2019-05-09T00:10:39.390Z,15.47
2019-05-09T00:13:03.362Z,15.63
2019-05-09T00:15:33.312Z,15.43
2019-05-09T00:18:03.898Z,12.80
2019-05-09T00:20:43.596Z,14.87
2019-05-09T00:23:13.541Z,14.97
2019-05-09T00:25:43.289Z,15.43
2019-05-09T00:28:13.547Z,16.27
2019-05-09T00:31:00.248Z,16.27
2019-05-09T00:33:30.742Z,16.50
2019-05-09T00:35:59.214Z,16.13
2019-05-09T00:38:47.061Z,15.73
2019-05-09T00:41:15.541Z,15.23
2019-05-09T00:43:45.645Z,13.40
2019-05-09T00:46:15.816Z,16.60
2019-05-09T00:49:00.759Z,13.60
2019-05-09T00:51:29.380Z,16.13
2019-05-09T00:53:57.860Z,18.10
2019-05-09T00:56:26.835Z,15.57
2019-05-09T00:58:55.342Z,13.87
2019-05-09T01:01:24.220Z,14.17
2019-05-09T01:03:53.599Z,13.90
2019-05-09T01:06:24.044Z,20.33
2019-05-09T01:08:53.673Z,16.30
2019-05-09T01:11:24.387Z,14.87
2019-05-09T01:13:54.380Z,14.80
2019-05-09T01:16:24.074Z,17.23
2019-05-09T01:18:54.355Z,15.57
2019-05-09T01:21:24.020Z,17.17
2019-05-09T01:23:54.019Z,16.63
2019-05-09T01:26:23.978Z,17.23
2019-05-09T01:28:54.184Z,17.57
2019-05-09T01:31:24.158Z,16.67
2019-05-09T01:34:00.825Z,19.77
2019-05-09T01:36:33.933Z,14.40
2019-05-09T01:39:03.322Z,15.23
2019-05-09T01:41:34.010Z,15.37
2019-05-09T01:44:04.109Z,14.87
2019-05-09T01:46:34.051Z,15.23
2019-05-09T01:49:03.270Z,16.77
2019-05-09T01:51:33.732Z,18.20
2019-05-09T01:54:03.801Z,14.60
2019-05-09T01:56:33.902Z,17.83
2019-05-09T01:59:03.122Z,17.90
2019-05-09T02:01:31.673Z,15.53
2019-05-09T02:04:00.188Z,20.20
2019-05-09T02:06:29.303Z,16.70
2019-05-09T02:08:58.685Z,14.97
2019-05-09T02:11:39.287Z,17.90
2019-05-09T02:13:57.456Z,19.30
2019-05-09T02:16:33.825Z,17.90
2019-05-09T02:19:04.152Z,16.63
2019-05-09T02:21:34.525Z,19.97
2019-05-09T02:24:03.486Z,18.97
2019-05-09T02:26:33.473Z,20.07
2019-05-09T02:29:03.286Z,18.93
2019-05-09T02:31:35.111Z,18.63
2019-05-09T02:34:04.887Z,19.63
2019-05-09T02:36:32.401Z,18.87
2019-05-09T02:39:01.163Z,21.67
2019-05-09T02:41:29.747Z,18.00
2019-05-09T02:43:58.648Z,17.43
2019-05-09T02:46:45.789Z,24.77
2019-05-09T02:49:18.905Z,19.57
2019-05-09T02:51:48.662Z,18.17
2019-05-09T02:54:19.173Z,19.47
2019-05-09T02:56:49.155Z,22.43
2019-05-09T02:59:19.088Z,23.40
2019-05-09T03:02:09.582Z,20.93
2019-05-09T03:04:39.144Z,20.67
2019-05-09T03:07:09.694Z,22.07
2019-05-09T03:09:38.853Z,18.63
2019-05-09T03:12:23.051Z,20.80
2019-05-09T03:14:38.572Z,23.17
2019-05-09T03:17:08.857Z,21.50
2019-05-09T03:19:38.607Z,19.67
2019-05-09T03:22:11.761Z,23.20
2019-05-09T03:24:40.359Z,22.97
2019-05-09T03:27:18.734Z,23.77
2019-05-09T03:29:49.072Z,21.10
2019-05-09T03:32:19.574Z,22.43
2019-05-09T03:34:47.927Z,23.40
2019-05-09T03:37:17.660Z,24.40
2019-05-09T03:39:47.814Z,21.13
2019-05-09T03:42:21.189Z,20.63
2019-05-09T03:44:47.697Z,20.77
2019-05-09T03:47:27.591Z,20.63
2019-05-09T03:50:10.037Z,22.90
2019-05-09T03:52:38.502Z,20.57
2019-05-09T03:55:10.473Z,20.93
2019-05-09T03:57:40.604Z,22.93
2019-05-09T04:00:09.769Z,22.80
2019-05-09T04:02:38.605Z,20.33
2019-05-09T04:05:08.093Z,23.47
2019-05-09T04:07:38.424Z,22.80
2019-05-09T04:10:07.882Z,23.57
2019-05-09T04:12:37.564Z,22.63
2019-05-09T04:15:08.406Z,21.97
2019-05-09T04:17:43.641Z,27.30
2019-05-09T04:20:13.595Z,23.53
2019-05-09T04:22:42.399Z,23.97
2019-05-09T04:25:12.856Z,24.67
2019-05-09T04:27:42.945Z,23.33
2019-05-09T04:30:11.641Z,23.67
2019-05-09T04:32:40.233Z,21.47
2019-05-09T04:35:08.764Z,24.27
2019-05-09T04:37:38.017Z,21.40
2019-05-09T04:40:08.277Z,21.93
2019-05-09T04:42:42.954Z,20.83
2019-05-09T04:45:20.759Z,20.87
2019-05-09T04:47:49.288Z,22.67
2019-05-09T04:50:23.491Z,24.57
2019-05-09T04:52:47.967Z,20.07
2019-05-09T04:55:18.289Z,20.70
2019-05-09T04:57:48.572Z,23.33
2019-05-09T05:00:18.911Z,22.87
2019-05-09T05:02:49.010Z,20.17
2019-05-09T05:05:18.113Z,19.47
2019-05-09T05:07:48.050Z,22.70
2019-05-09T05:10:18.403Z,21.83
2019-05-09T05:12:48.416Z,22.20
2019-05-09T05:15:17.930Z,20.37
2019-05-09T05:17:47.960Z,19.83
2019-05-09T05:20:18.634Z,19.10
2019-05-09T05:22:54.731Z,19.03
2019-05-09T05:25:23.264Z,20.03
2019-05-09T05:27:51.725Z,19.10
2019-05-09T05:30:20.292Z,21.67
2019-05-09T05:32:52.937Z,19.27
2019-05-09T05:35:28.301Z,21.90
2019-05-09T05:37:58.090Z,20.63
2019-05-09T05:40:31.889Z,18.20
2019-05-09T05:42:58.519Z,20.07
2019-05-09T05:45:28.542Z,19.93
2019-05-09T05:47:58.768Z,20.03
2019-05-09T05:50:28.071Z,18.43
2019-05-09T05:52:57.761Z,20.77
2019-05-09T05:55:27.476Z,20.60
2019-05-09T05:57:57.853Z,21.13
2019-05-09T06:00:28.596Z,19.57
2019-05-09T06:02:58.552Z,19.77
2019-05-09T06:05:27.884Z,17.23
2019-05-09T06:07:57.674Z,19.50
2019-05-09T06:10:28.785Z,20.27
2019-05-09T06:12:57.554Z,17.20
2019-05-09T06:15:28.603Z,19.03
2019-05-09T06:17:57.834Z,17.37
2019-05-09T06:20:28.160Z,20.97
2019-05-09T06:22:58.169Z,21.43
2019-05-09T06:25:30.618Z,19.23
2019-05-09T06:27:58.403Z,18.33
2019-05-09T06:30:30.742Z,19.20
2019-05-09T06:32:59.739Z,23.53
2019-05-09T06:35:28.778Z,20.33
2019-05-09T06:37:58.708Z,18.47
2019-05-09T06:40:28.760Z,15.87
2019-05-09T06:42:59.328Z,16.87
2019-05-09T06:45:48.667Z,16.03
2019-05-09T06:48:38.085Z,17.77
2019-05-09T06:51:07.345Z,16.13
2019-05-09T06:53:38.058Z,16.97
2019-05-09T06:56:07.425Z,16.47
2019-05-09T06:58:43.197Z,15.87
2019-05-09T07:01:29.708Z,14.80
2019-05-09T07:03:59.880Z,16.10
2019-05-09T07:06:38.017Z,13.80
2019-05-09T07:09:24.425Z,14.77
2019-05-09T07:11:52.924Z,15.43
2019-05-09T07:14:41.335Z,15.37
2019-05-09T07:17:08.320Z,16.33
2019-05-09T07:19:38.378Z,16.47
2019-05-09T07:22:09.249Z,14.90
2019-05-09T07:25:05.932Z,15.83
2019-05-09T07:27:29.532Z,19.00
2019-05-09T07:29:59.627Z,14.67
2019-05-09T07:32:41.540Z,15.83
2019-05-09T07:35:11.103Z,16.50
2019-05-09T07:37:39.554Z,17.47
2019-05-09T07:40:08.669Z,15.27
2019-05-09T07:42:39.038Z,16.17
2019-05-09T07:45:08.844Z,16.57
2019-05-09T07:47:38.778Z,14.47
2019-05-09T07:50:08.640Z,17.03
2019-05-09T07:52:38.802Z,13.87
2019-05-09T07:55:08.806Z,13.77
2019-05-09T07:57:45.627Z,15.77
2019-05-09T08:00:08.744Z,12.70
2019-05-09T08:02:38.667Z,13.57
2019-05-09T08:05:08.711Z,13.40
2019-05-09T08:07:38.122Z,13.17
2019-05-09T08:10:08.855Z,12.00
2019-05-09T08:12:38.891Z,12.07
2019-05-09T08:15:16.245Z,13.87
2019-05-09T08:17:38.440Z,14.43
2019-05-09T08:20:07.972Z,11.30
2019-05-09T08:22:40.889Z,11.63
2019-05-09T08:25:08.206Z,11.60
2019-05-09T08:27:37.856Z,12.07
2019-05-09T08:30:08.131Z,11.00
2019-05-09T08:32:37.715Z,13.37
2019-05-09T08:35:08.219Z,13.33
2019-05-09T08:37:49.840Z,11.57
2019-05-09T08:40:21.409Z,13.37
2019-05-09T08:42:48.571Z,14.33
2019-05-09T08:45:25.297Z,12.57
2019-05-09T08:47:48.528Z,14.13
2019-05-09T08:50:31.814Z,14.60
2019-05-09T08:53:00.343Z,14.00
2019-05-09T08:55:28.927Z,15.00
2019-05-09T08:57:58.647Z,14.23
2019-05-09T09:00:28.207Z,15.30
2019-05-09T09:02:57.563Z,14.60
2019-05-09T09:05:28.660Z,14.80
2019-05-09T09:07:57.863Z,15.87
2019-05-09T09:10:29.128Z,13.67
2019-05-09T09:12:58.095Z,13.13
2019-05-09T09:15:50.064Z,15.87
2019-05-09T09:17:57.927Z,13.07
2019-05-09T09:20:28.869Z,15.40
2019-05-09T09:22:58.255Z,16.23
2019-05-09T09:25:28.707Z,14.23
2019-05-09T09:27:58.429Z,12.37
2019-05-09T09:30:29.358Z,16.13
2019-05-09T09:32:58.671Z,14.33
2019-05-09T09:35:27.859Z,13.50
2019-05-09T09:37:58.022Z,16.10
2019-05-09T09:40:27.885Z,14.57
2019-05-09T09:42:58.044Z,15.87
2019-05-09T09:45:28.082Z,15.00
2019-05-09T09:47:59.074Z,16.53
2019-05-09T09:50:27.715Z,19.20
2019-05-09T09:52:58.907Z,24.73
2019-05-09T09:55:27.821Z,21.53
2019-05-09T09:57:57.872Z,21.47
2019-05-09T10:00:43.828Z,22.17
2019-05-09T10:03:12.570Z,24.83
2019-05-09T10:05:41.541Z,21.40
2019-05-09T10:08:13.819Z,26.80
2019-05-09T10:10:40.272Z,24.73
2019-05-09T10:13:10.829Z,24.83
2019-05-09T10:15:43.608Z,28.87
2019-05-09T10:18:13.742Z,31.20
2019-05-09T10:20:43.839Z,36.60
2019-05-09T10:23:18.083Z,32.93
2019-05-09T10:25:42.603Z,28.67
2019-05-09T10:28:11.147Z,31.43
2019-05-09T10:30:39.764Z,36.63
2019-05-09T10:33:09.222Z,32.90
2019-05-09T10:35:39.164Z,31.70
2019-05-09T10:38:08.921Z,35.03
2019-05-09T10:40:40.110Z,32.23
2019-05-09T10:43:34.499Z,38.40
2019-05-09T10:46:10.030Z,33.60
2019-05-09T10:48:39.371Z,37.07
2019-05-09T10:51:10.450Z,33.20
2019-05-09T10:53:38.584Z,40.57
2019-05-09T10:56:08.589Z,40.93
2019-05-09T10:58:37.492Z,38.67
2019-05-09T11:01:09.109Z,39.30
2019-05-09T11:03:37.648Z,35.90
2019-05-09T11:06:08.529Z,45.13
2019-05-09T11:08:38.101Z,38.80
2019-05-09T11:11:09.451Z,36.97
2019-05-09T11:13:38.950Z,37.70
2019-05-09T11:16:07.849Z,37.97
2019-05-09T11:18:36.436Z,40.57
2019-05-09T11:21:08.400Z,44.87
2019-05-09T11:23:36.156Z,40.20
2019-05-09T11:26:04.780Z,38.40
2019-05-09T11:28:33.401Z,41.07
2019-05-09T11:31:01.933Z,38.10
2019-05-09T11:33:30.399Z,33.50
2019-05-09T11:35:58.935Z,30.83
2019-05-09T11:38:34.781Z,30.60
2019-05-09T11:40:58.119Z,28.13
2019-05-09T11:43:29.643Z,26.13
2019-05-09T11:45:58.671Z,25.77
2019-05-09T11:48:28.373Z,28.80
2019-05-09T11:50:57.990Z,22.20
2019-05-09T11:53:28.861Z,21.20
2019-05-09T11:55:57.912Z,22.97
2019-05-09T11:58:28.019Z,22.27
2019-05-09T12:00:56.781Z,20.50
2019-05-09T12:03:25.243Z,21.83
2019-05-09T12:05:53.722Z,20.27
2019-05-09T12:08:22.222Z,18.80
2019-05-09T12:10:50.779Z,20.33
2019-05-09T12:13:19.321Z,19.30
2019-05-09T12:15:48.958Z,16.03
2019-05-09T12:18:17.731Z,14.57
2019-05-09T12:20:48.269Z,13.30
2019-05-09T12:23:19.644Z,12.43
2019-05-09T12:25:46.677Z,11.80
2019-05-09T12:28:15.184Z,10.73
2019-05-09T12:30:43.771Z,10.47
2019-05-09T12:33:12.312Z,9.97
2019-05-09T12:35:40.830Z,9.80
2019-05-09T12:38:09.408Z,9.07
2019-05-09T12:40:38.899Z,9.10
2019-05-09T12:43:09.142Z,8.53
2019-05-09T12:45:38.733Z,8.70
2019-05-09T12:48:13.795Z,7.47
2019-05-09T12:50:38.695Z,7.93
2019-05-09T12:53:14.671Z,7.30
2019-05-09T12:55:43.273Z,7.53
2019-05-09T12:58:30.015Z,8.20
2019-05-09T13:00:59.490Z,8.20
2019-05-09T13:03:29.066Z,7.40
2019-05-09T13:05:58.210Z,7.20
2019-05-09T13:08:27.870Z,8.40
2019-05-09T13:10:58.320Z,7.70
2019-05-09T13:13:30.241Z,6.93
2019-05-09T13:16:01.543Z,7.50
2019-05-09T13:18:48.963Z,7.97
2019-05-09T13:21:18.758Z,7.70
2019-05-09T13:23:51.965Z,7.60
2019-05-09T13:26:18.661Z,7.67
2019-05-09T13:28:48.915Z,8.30
2019-05-09T13:31:18.279Z,8.77
2019-05-09T13:33:48.674Z,7.50
2019-05-09T13:36:18.883Z,7.20
2019-05-09T13:38:57.830Z,7.20
2019-05-09T13:41:17.867Z,6.80
2019-05-09T13:43:53.455Z,6.80
2019-05-09T13:46:17.852Z,9.67
2019-05-09T13:49:05.952Z,7.03
2019-05-09T13:51:18.381Z,7.47
2019-05-09T13:53:48.439Z,7.47
2019-05-09T13:56:17.893Z,6.90
2019-05-09T13:58:48.663Z,7.20
2019-05-09T14:01:17.588Z,7.43
2019-05-09T14:03:48.820Z,7.03
2019-05-09T14:06:16.710Z,6.60
2019-05-09T14:08:48.593Z,7.03
2019-05-09T14:11:15.599Z,6.80
2019-05-09T14:13:44.130Z,6.42
2019-05-09T14:16:19.922Z,6.70
2019-05-09T14:18:42.874Z,6.20
2019-05-09T14:21:11.411Z,5.95
2019-05-09T14:23:51.714Z,6.37
2019-05-09T14:26:10.196Z,5.65
2019-05-09T14:28:38.663Z,5.50
2019-05-09T14:31:09.191Z,5.65
2019-05-09T14:33:38.916Z,6.45
2019-05-09T14:36:08.242Z,7.70
2019-05-09T14:38:39.171Z,7.95
2019-05-09T14:41:07.884Z,7.15
2019-05-09T14:43:39.351Z,7.73
2019-05-09T14:46:08.222Z,7.87
2019-05-09T14:48:36.958Z,7.37
2019-05-09T14:51:07.558Z,7.15
2019-05-09T14:53:35.740Z,7.47
2019-05-09T14:56:04.323Z,7.35
2019-05-09T14:58:32.866Z,7.40
2019-05-09T15:01:01.387Z,6.90
2019-05-09T15:03:30.357Z,6.97
2019-05-09T15:05:59.677Z,6.03
2019-05-09T15:08:29.744Z,6.62
2019-05-09T15:11:01.696Z,5.45
2019-05-09T15:13:30.711Z,8.48
2019-05-09T15:15:59.382Z,9.33
2019-05-09T15:18:28.070Z,6.50
2019-05-09T15:20:58.106Z,7.17
2019-05-09T15:23:29.228Z,7.12
2019-05-09T15:25:58.094Z,5.80
2019-05-09T15:28:28.955Z,7.25
2019-05-09T15:30:59.417Z,7.85
2019-05-09T15:33:27.634Z,8.05
2019-05-09T15:35:58.726Z,7.53
2019-05-09T15:38:28.729Z,7.75
2019-05-09T15:40:56.904Z,7.35
2019-05-09T15:43:25.553Z,7.08
2019-05-09T15:46:11.832Z,7.12
2019-05-09T15:48:40.406Z,7.65
2019-05-09T15:51:14.433Z,7.20
2019-05-09T15:53:45.317Z,6.65
2019-05-09T15:56:18.580Z,6.85
2019-05-09T15:58:44.950Z,7.70
2019-05-09T16:01:13.997Z,6.12
2019-05-09T16:03:48.797Z,7.55
2019-05-09T16:06:19.137Z,7.05
2019-05-09T16:08:47.849Z,6.62
2019-05-09T16:11:18.075Z,8.13
2019-05-09T16:13:47.989Z,6.65
2019-05-09T16:16:17.528Z,8.53
2019-05-09T16:18:48.606Z,7.67
2019-05-09T16:21:16.614Z,6.93
2019-05-09T16:23:45.204Z,7.67
2019-05-09T16:26:13.801Z,8.67
2019-05-09T16:28:42.349Z,8.57
2019-05-09T16:31:11.195Z,7.73
2019-05-09T16:33:39.766Z,8.10
2019-05-09T16:36:08.438Z,7.70
2019-05-09T16:38:42.931Z,7.97
2019-05-09T16:41:07.801Z,8.40
2019-05-09T16:43:38.144Z,7.13
2019-05-09T16:46:07.582Z,8.43
2019-05-09T16:48:36.356Z,8.27
2019-05-09T16:51:04.972Z,8.10
2019-05-09T16:53:33.551Z,8.63
2019-05-09T16:56:02.080Z,9.00
2019-05-09T16:58:30.793Z,8.60
2019-05-09T17:00:59.553Z,8.20
2019-05-09T17:03:28.467Z,6.50
2019-05-09T17:05:58.260Z,6.73
2019-05-09T17:08:28.208Z,5.57
2019-05-09T17:10:58.654Z,5.80
2019-05-09T17:13:28.940Z,6.47
2019-05-09T17:15:57.698Z,7.70
2019-05-09T17:18:28.291Z,9.73
2019-05-09T17:21:15.101Z,8.00
2019-05-09T17:23:31.630Z,8.57
2019-05-09T17:26:00.613Z,10.07
2019-05-09T17:28:29.238Z,7.67
2019-05-09T17:30:58.076Z,9.67
2019-05-09T17:33:28.751Z,9.33
2019-05-09T17:35:57.795Z,9.23
2019-05-09T17:38:27.919Z,8.10
2019-05-09T17:40:57.705Z,10.27
2019-05-09T17:43:27.879Z,11.60
2019-05-09T17:45:58.474Z,9.43
2019-05-09T17:48:28.523Z,8.73
2019-05-09T17:50:57.909Z,9.10
2019-05-09T17:53:29.235Z,7.10
2019-05-09T17:55:58.618Z,7.03
2019-05-09T17:58:33.064Z,7.50
2019-05-09T18:00:59.233Z,8.97
2019-05-09T18:03:29.169Z,7.93
2019-05-09T18:05:58.003Z,8.13
2019-05-09T18:08:28.387Z,7.63
2019-05-09T18:10:58.379Z,9.23
2019-05-09T18:13:29.539Z,8.23
2019-05-09T18:15:57.620Z,9.50
2019-05-09T18:18:28.406Z,8.93
2019-05-09T18:20:58.017Z,8.60
2019-05-09T18:23:28.397Z,8.80
2019-05-09T18:25:58.499Z,9.93
2019-05-09T18:28:29.341Z,10.50
2019-05-09T18:30:58.492Z,8.60
2019-05-09T18:33:34.716Z,7.70
2019-05-09T18:36:03.389Z,7.03
2019-05-09T18:38:34.053Z,6.40
2019-05-09T18:41:07.022Z,8.00
2019-05-09T18:43:33.612Z,5.17
2019-05-09T18:46:02.212Z,4.60
2019-05-09T18:48:32.185Z,4.87
2019-05-09T18:51:06.610Z,4.30
2019-05-09T18:53:35.560Z,4.83
2019-05-09T18:56:06.184Z,5.10
2019-05-09T18:58:41.152Z,4.77
2019-05-09T19:01:06.036Z,5.13
2019-05-09T19:03:36.488Z,6.03
2019-05-09T19:06:05.801Z,6.27
2019-05-09T19:08:34.622Z,9.87
2019-05-09T19:11:03.831Z,8.07
2019-05-09T19:13:33.070Z,9.50
2019-05-09T19:16:12.587Z,9.20
2019-05-09T19:18:42.957Z,9.73
2019-05-09T19:21:19.919Z,10.83
2019-05-09T19:23:53.648Z,11.13
2019-05-09T19:26:32.718Z,10.17
2019-05-09T19:29:01.422Z,12.00
2019-05-09T19:31:29.985Z,12.03
2019-05-09T19:33:58.537Z,11.30
2019-05-09T19:36:27.285Z,12.23
2019-05-09T19:38:55.996Z,12.97
2019-05-09T19:41:24.668Z,12.90
2019-05-09T19:43:53.740Z,14.03
2019-05-09T19:46:22.253Z,16.67
2019-05-09T19:48:50.760Z,17.70
2019-05-09T19:51:19.422Z,17.67
2019-05-09T19:53:48.203Z,18.07
2019-05-09T19:56:16.819Z,17.40
2019-05-09T19:58:45.666Z,15.73
2019-05-09T20:01:15.552Z,17.57
2019-05-09T20:03:44.524Z,18.57
2019-05-09T20:06:16.446Z,17.07
2019-05-09T20:08:43.373Z,15.67
2019-05-09T20:11:15.268Z,16.07
2019-05-09T20:13:57.664Z,17.00
2019-05-09T20:16:30.803Z,16.37
2019-05-09T20:18:59.296Z,16.27
2019-05-09T20:21:27.873Z,14.37
2019-05-09T20:23:57.951Z,15.97
2019-05-09T20:26:26.765Z,15.30
2019-05-09T20:28:55.408Z,15.00
2019-05-09T20:31:23.940Z,15.60
2019-05-09T20:33:52.541Z,14.10
2019-05-09T20:36:40.449Z,15.50
2019-05-09T20:39:09.395Z,15.43
2019-05-09T20:41:38.151Z,15.93
2019-05-09T20:44:06.915Z,15.33
2019-05-09T20:46:35.670Z,17.50
2019-05-09T20:49:04.520Z,15.17
2019-05-09T20:51:33.280Z,16.23
2019-05-09T20:54:01.999Z,16.63
2019-05-09T20:56:30.737Z,16.70
2019-05-09T20:58:59.613Z,19.70
2019-05-09T21:01:28.233Z,19.07
2019-05-09T21:04:00.212Z,20.37
2019-05-09T21:06:27.425Z,19.87
2019-05-09T21:08:56.090Z,20.70
2019-05-09T21:11:24.800Z,21.20
2019-05-09T21:13:53.535Z,21.03
2019-05-09T21:16:22.291Z,20.63
2019-05-09T21:18:50.983Z,22.50
2019-05-09T21:21:19.890Z,22.67
2019-05-09T21:23:48.667Z,20.97
2019-05-09T21:26:17.420Z,23.50
2019-05-09T21:28:46.222Z,21.93
2019-05-09T21:31:15.544Z,22.93
2019-05-09T21:33:44.220Z,22.17
2019-05-09T21:36:12.788Z,24.37
2019-05-09T21:38:41.256Z,20.00
2019-05-09T21:41:09.788Z,22.97
2019-05-09T21:43:38.389Z,25.20
2019-05-09T21:46:06.934Z,25.77
2019-05-09T21:48:38.426Z,25.77
2019-05-09T21:51:05.723Z,22.93
2019-05-09T21:53:40.947Z,24.93
2019-05-09T21:56:04.537Z,25.53
2019-05-09T21:58:33.080Z,24.10
2019-05-09T22:01:02.099Z,23.33
2019-05-09T22:03:30.634Z,22.03
2019-05-09T22:05:59.139Z,23.13
2019-05-09T22:08:27.770Z,21.73
2019-05-09T22:10:56.289Z,22.87
2019-05-09T22:13:24.887Z,22.10
2019-05-09T22:15:53.589Z,21.30
2019-05-09T22:18:22.278Z,21.10
2019-05-09T22:20:50.868Z,23.27
2019-05-09T22:23:19.330Z,22.07
2019-05-09T22:25:47.856Z,23.03
2019-05-09T22:28:16.360Z,22.40
2019-05-09T22:30:44.898Z,22.93
2019-05-09T22:33:13.366Z,22.37
2019-05-09T22:35:41.948Z,22.37
2019-05-09T22:38:10.584Z,23.03
2019-05-09T22:40:39.129Z,21.43
2019-05-09T22:43:07.780Z,24.27
2019-05-09T22:45:36.426Z,22.13
2019-05-09T22:48:05.104Z,24.37
2019-05-09T22:50:33.645Z,24.70
2019-05-09T22:53:02.189Z,25.57
2019-05-09T22:55:30.650Z,24.10
2019-05-09T22:57:59.151Z,25.00
2019-05-09T23:00:27.641Z,24.13
2019-05-09T23:02:56.160Z,24.87
2019-05-09T23:05:24.734Z,24.60
2019-05-09T23:07:53.267Z,28.50
2019-05-09T23:10:21.731Z,25.70
2019-05-09T23:12:50.314Z,30.73
2019-05-09T23:15:19.722Z,28.73
2019-05-09T23:17:48.189Z,26.43
2019-05-09T23:20:33.921Z,32.57
2019-05-09T23:23:04.095Z,27.67
2019-05-09T23:25:32.625Z,29.00
2019-05-09T23:28:01.140Z,27.37
2019-05-09T23:30:29.677Z,27.97
2019-05-09T23:32:58.192Z,27.10
2019-05-09T23:35:26.750Z,29.17
2019-05-09T23:37:55.214Z,29.97
2019-05-09T23:40:23.748Z,23.23
2019-05-09T23:42:52.235Z,27.00
2019-05-09T23:45:20.716Z,25.67
2019-05-09T23:47:49.176Z,27.53
2019-05-09T23:50:17.686Z,28.10
2019-05-09T23:52:46.208Z,29.33
2019-05-09T23:55:32.657Z,28.17
2019-05-09T23:58:19.443Z,28.13
